Time;durP1;ratioP1;P1;durP2;ratioP2;P2;SDS_P1;SDS_P2;PMS_P1;PMS_P2;Temp;Humidity;BMP_temperature;BMP_pressure;BME280_temperature;BME280_humidity;BME280_pressure;Samples;Min_cycle;Max_cycle;Signal;HPM_P1;HPM_P2
2021/05/01 00:02:21;;;;;;;1.93;1.70;;;20.20;47.80;;;;;;10347898;28;20238;-15
2021/05/01 00:07:43;;;;;;;2.10;1.90;;;20.20;47.60;;;;;;10345508;28;20199;-15
2021/05/01 00:13:05;;;;;;;2.20;2.00;;;20.20;47.80;;;;;;10370424;28;20673;-15
2021/05/01 00:18:27;;;;;;;1.90;1.80;;;20.20;47.60;;;;;;10368415;28;20710;-14
2021/05/01 00:23:49;;;;;;;1.97;1.80;;;20.20;47.80;;;;;;10365995;28;20249;-15
2021/05/01 00:29:11;;;;;;;2.20;1.70;;;20.20;47.70;;;;;;10343960;28;20606;-15
2021/05/01 00:34:32;;;;;;;1.90;1.80;;;20.10;47.80;;;;;;10338739;28;20217;-14
2021/05/01 00:39:55;;;;;;;2.23;1.57;;;20.20;47.60;;;;;;10337022;28;20227;-15
2021/05/01 00:45:16;;;;;;;2.30;2.10;;;20.20;47.80;;;;;;10354000;28;20224;-14
2021/05/01 00:50:38;;;;;;;1.97;1.87;;;20.10;47.80;;;;;;10376251;28;20264;-17
2021/05/01 00:56:01;;;;;;;2.10;1.90;;;20.10;47.60;;;;;;10377092;28;20257;-14
2021/05/01 01:01:24;;;;;;;2.10;1.90;;;20.20;47.40;;;;;;10353615;28;20637;-14
2021/05/01 01:06:47;;;;;;;2.00;1.90;;;20.10;47.50;;;;;;10337606;28;20288;-14
2021/05/01 01:12:09;;;;;;;1.77;1.67;;;20.10;47.60;;;;;;10336289;28;20249;-14
2021/05/01 01:17:31;;;;;;;1.90;1.80;;;20.10;47.60;;;;;;10354251;28;20194;-14
2021/05/01 01:22:54;;;;;;;2.20;2.00;;;20.10;47.50;;;;;;10346774;28;20219;-15
2021/05/01 01:28:16;;;;;;;1.77;1.67;;;20.20;47.70;;;;;;10371340;28;20225;-15
2021/05/01 01:33:39;;;;;;;2.10;1.90;;;20.10;47.40;;;;;;10374678;28;20225;-14
2021/05/01 01:39:02;;;;;;;1.90;1.80;;;20.20;47.50;;;;;;10351311;28;20206;-15
2021/05/01 01:44:24;;;;;;;1.83;1.73;;;20.10;47.80;;;;;;10335469;28;20223;-14
2021/05/01 01:49:45;;;;;;;2.10;1.90;;;20.10;47.40;;;;;;10352826;28;20624;-15
2021/05/01 01:55:10;;;;;;;2.07;1.97;;;20.10;47.60;;;;;;10343009;28;20198;-14
2021/05/01 02:00:33;;;;;;;2.07;1.90;;;20.10;47.70;;;;;;10374860;28;20264;-12
2021/05/01 02:05:55;;;;;;;1.73;1.63;;;20.10;47.70;;;;;;10370155;28;20670;-12
2021/05/01 02:11:17;;;;;;;1.90;1.80;;;20.10;47.40;;;;;;10339108;28;20219;-16
2021/05/01 02:16:39;;;;;;;2.03;1.87;;;20.10;47.30;;;;;;10335194;28;20227;-16
2021/05/01 02:22:01;;;;;;;1.90;1.70;;;20.10;47.40;;;;;;10337828;28;20264;-12
2021/05/01 02:27:23;;;;;;;2.10;1.90;;;20.00;47.60;;;;;;10373610;28;20653;-16
2021/05/01 02:32:45;;;;;;;2.10;1.90;;;20.00;47.60;;;;;;10373466;28;20586;-17
2021/05/01 02:38:08;;;;;;;2.37;1.57;;;20.00;47.70;;;;;;10373689;28;20276;-13
2021/05/01 02:43:30;;;;;;;2.23;2.03;;;20.00;47.50;;;;;;10373223;28;20265;-15
2021/05/01 02:48:52;;;;;;;2.27;2.10;;;20.00;47.80;;;;;;10370961;28;20190;-13
2021/05/01 02:54:13;;;;;;;2.00;1.77;;;20.10;47.70;;;;;;10373044;28;20210;-15
2021/05/01 02:59:36;;;;;;;4.03;2.20;;;20.10;47.40;;;;;;10336211;28;20674;-17
2021/05/01 03:04:58;;;;;;;2.37;2.10;;;20.10;47.50;;;;;;10373288;28;20233;-16
2021/05/01 03:10:22;;;;;;;2.47;2.27;;;20.00;47.40;;;;;;10372620;28;20229;-12
2021/05/01 03:15:44;;;;;;;2.80;2.00;;;20.10;47.30;;;;;;10372673;28;20225;-12
2021/05/01 03:21:06;;;;;;;2.13;1.97;;;20.10;47.30;;;;;;10368640;28;20241;-16
2021/05/01 03:26:27;;;;;;;1.80;1.70;;;20.10;47.30;;;;;;10376326;28;20573;-15
2021/05/01 03:31:50;;;;;;;2.20;2.00;;;20.00;47.30;;;;;;10338331;28;20269;-15
2021/05/01 03:37:11;;;;;;;1.87;1.70;;;20.00;47.40;;;;;;10332403;28;20191;-14
2021/05/01 03:42:33;;;;;;;2.23;2.03;;;20.00;47.40;;;;;;10354288;28;20284;-14
2021/05/01 03:47:56;;;;;;;2.10;2.00;;;20.00;47.20;;;;;;10371303;28;20614;-16
2021/05/01 03:53:17;;;;;;;2.13;1.97;;;20.00;47.50;;;;;;10341982;28;20215;-16
2021/05/01 03:58:39;;;;;;;2.17;1.80;;;20.00;47.40;;;;;;10365844;28;20257;-13
2021/05/01 04:04:03;;;;;;;1.87;1.77;;;20.00;47.60;;;;;;10369674;28;20222;-15
2021/05/01 04:09:24;;;;;;;2.03;1.93;;;20.00;47.40;;;;;;10369568;28;20673;-16
2021/05/01 04:14:46;;;;;;;1.93;1.83;;;20.00;47.20;;;;;;10336422;28;20230;-15
2021/05/01 04:20:10;;;;;;;1.70;1.60;;;20.00;47.10;;;;;;10332573;28;20277;-15
2021/05/01 04:25:32;;;;;;;2.30;2.10;;;20.00;47.30;;;;;;10329335;28;21476;-12
2021/05/01 04:30:54;;;;;;;1.90;1.80;;;20.00;47.90;;;;;;10329780;28;20234;-14
2021/05/01 04:36:16;;;;;;;1.80;1.70;;;20.00;47.10;;;;;;10330955;28;20202;-12
2021/05/01 04:41:39;;;;;;;1.90;1.80;;;20.00;47.00;;;;;;10359381;28;20640;-15
2021/05/01 04:47:00;;;;;;;1.83;1.73;;;20.00;47.40;;;;;;10372312;28;20218;-12
2021/05/01 04:52:23;;;;;;;1.77;1.53;;;20.00;47.20;;;;;;10371651;28;20375;-15
2021/05/01 04:57:46;;;;;;;1.80;1.70;;;20.10;47.20;;;;;;10371857;28;20194;-16
2021/05/01 05:03:09;;;;;;;1.70;1.60;;;20.00;47.20;;;;;;10370872;28;20218;-15
2021/05/01 05:08:31;;;;;;;1.73;1.63;;;20.00;47.30;;;;;;10371126;28;20249;-14
2021/05/01 05:13:53;;;;;;;2.80;1.80;;;20.00;47.30;;;;;;10378552;28;20721;-14
2021/05/01 05:19:14;;;;;;;1.70;1.60;;;20.00;47.30;;;;;;10379394;28;20474;-13
2021/05/01 05:24:38;;;;;;;1.73;1.50;;;20.00;47.50;;;;;;10378370;28;20218;-13
2021/05/01 05:29:59;;;;;;;2.23;2.00;;;20.10;47.20;;;;;;10376674;28;20223;-15
2021/05/01 05:35:21;;;;;;;1.77;1.67;;;20.00;47.30;;;;;;10375550;28;20201;-14
2021/05/01 05:40:44;;;;;;;2.03;1.60;;;20.10;47.10;;;;;;10376592;28;20273;-13
2021/05/01 05:46:12;;;;;;;2.20;1.70;;;20.10;47.40;;;;;;10375546;28;20606;-12
2021/05/01 05:51:35;;;;;;;1.70;1.60;;;20.00;47.50;;;;;;10373676;28;20214;-17
2021/05/01 05:56:58;;;;;;;1.70;1.60;;;20.10;47.50;;;;;;10387734;23;20223;-18
2021/05/01 06:02:22;;;;;;;1.63;1.53;;;20.10;47.40;;;;;;10382440;28;20204;-17
2021/05/01 06:07:46;;;;;;;1.87;1.77;;;20.00;47.50;;;;;;10394789;28;20292;-19
2021/05/01 06:13:09;;;;;;;2.43;1.50;;;20.00;47.50;;;;;;10392839;28;20202;-14
2021/05/01 06:18:35;;;;;;;1.43;1.33;;;20.10;47.70;;;;;;10389892;28;20689;-15
2021/05/01 06:23:57;;;;;;;1.77;1.30;;;20.00;47.60;;;;;;10371758;28;20217;-17
2021/05/01 06:29:19;;;;;;;1.37;1.27;;;20.00;47.70;;;;;;10365007;28;20253;-15
2021/05/01 06:34:45;;;;;;;1.50;1.40;;;20.10;47.40;;;;;;10369129;28;20201;-17
2021/05/01 06:40:10;;;;;;;1.40;1.30;;;20.00;47.60;;;;;;10371199;28;20238;-19
2021/05/01 06:45:35;;;;;;;1.50;1.40;;;20.00;47.70;;;;;;10378435;28;20248;-14
2021/05/01 06:51:00;;;;;;;2.50;1.30;;;20.10;47.80;;;;;;10374270;28;20618;-17
2021/05/01 06:56:22;;;;;;;1.40;1.30;;;20.10;47.60;;;;;;10367772;28;20662;-18
2021/05/01 07:01:46;;;;;;;1.30;1.20;;;20.10;47.80;;;;;;10362287;28;20195;-17
2021/05/01 07:07:08;;;;;;;1.27;1.17;;;20.10;47.50;;;;;;10366737;28;20226;-18
2021/05/01 07:12:30;;;;;;;1.50;1.40;;;20.10;47.60;;;;;;10379191;28;20198;-19
2021/05/01 07:17:53;;;;;;;1.23;1.13;;;20.10;47.70;;;;;;10384700;28;20210;-14
2021/05/01 07:23:14;;;;;;;1.43;1.33;;;20.10;47.50;;;;;;10388907;28;20225;-14
2021/05/01 07:28:38;;;;;;;1.33;1.23;;;20.10;47.70;;;;;;10386876;28;20237;-17
2021/05/01 07:34:01;;;;;;;1.90;1.50;;;20.20;47.60;;;;;;10386036;28;20198;-14
2021/05/01 07:39:24;;;;;;;3.37;2.27;;;20.10;47.70;;;;;;10379313;28;20237;-15
2021/05/01 07:44:47;;;;;;;5.77;5.10;;;20.20;46.70;;;;;;10376352;28;20670;-19
2021/05/01 07:50:10;;;;;;;9.27;6.33;;;19.70;45.00;;;;;;10375395;28;20610;-15
2021/05/01 07:55:32;;;;;;;12.77;5.77;;;19.30;45.50;;;;;;10377812;28;20617;-17
2021/05/01 08:00:54;;;;;;;7.43;6.30;;;19.20;46.70;;;;;;10378285;28;20222;-13
2021/05/01 08:06:17;;;;;;;8.37;6.13;;;19.00;46.20;;;;;;10381581;28;20222;-18
2021/05/01 08:11:39;;;;;;;6.87;6.17;;;19.00;46.30;;;;;;10383955;28;20236;-16
2021/05/01 08:17:01;;;;;;;8.13;6.73;;;18.90;46.10;;;;;;10382007;28;20629;-13
2021/05/01 08:22:23;;;;;;;8.13;7.07;;;18.90;46.20;;;;;;10381748;28;20217;-17
2021/05/01 08:27:45;;;;;;;9.53;8.60;;;19.00;45.40;;;;;;10383913;28;20232;-17
2021/05/01 08:33:07;;;;;;;9.43;7.80;;;19.20;46.00;;;;;;10364683;28;20207;-15
2021/05/01 08:38:32;;;;;;;17.90;7.33;;;19.10;45.60;;;;;;10355918;28;20218;-14
2021/05/01 08:44:03;;;;;;;12.63;7.83;;;19.40;46.30;;;;;;10380398;28;20217;-14
2021/05/01 08:49:25;;;;;;;8.97;8.07;;;19.20;45.40;;;;;;10389086;28;20264;-15
2021/05/01 08:54:47;;;;;;;10.27;8.53;;;19.10;45.60;;;;;;10387256;28;20258;-18
2021/05/01 09:00:10;;;;;;;8.80;8.00;;;19.10;45.90;;;;;;10385989;28;20693;-18
2021/05/01 09:05:33;;;;;;;10.07;8.80;;;19.10;45.70;;;;;;10381734;28;20222;-13
2021/05/01 09:10:56;;;;;;;9.87;8.00;;;19.00;44.90;;;;;;10383054;28;20225;-15
2021/05/01 09:16:17;;;;;;;9.97;8.70;;;18.90;45.40;;;;;;10382748;28;20268;-17
2021/05/01 09:21:39;;;;;;;10.60;9.43;;;18.90;45.10;;;;;;10382602;28;20201;-13
2021/05/01 09:27:03;;;;;;;11.77;9.20;;;18.70;48.10;;;;;;10381153;28;20222;-17
2021/05/01 09:32:27;;;;;;;7.20;6.50;;;18.80;50.60;;;;;;10380345;28;20203;-18
2021/05/01 09:37:51;;;;;;;7.00;6.30;;;18.50;47.70;;;;;;10378390;28;20589;-14
2021/05/01 09:43:14;;;;;;;7.60;6.87;;;18.30;48.70;;;;;;10373377;28;20206;-18
2021/05/01 09:48:35;;;;;;;6.60;6.00;;;18.10;48.70;;;;;;10384697;28;20214;-14
2021/05/01 09:53:58;;;;;;;7.97;6.17;;;18.20;49.60;;;;;;10384492;28;20675;-16
2021/05/01 09:59:21;;;;;;;6.67;6.07;;;18.40;48.50;;;;;;10382891;28;20240;-13
2021/05/01 10:05:00;;;;;;;6.90;6.20;;;18.50;48.90;;;;;;10377547;28;20567;-15
2021/05/01 10:10:22;;;;;;;6.80;5.80;;;18.60;50.20;;;;;;10380520;28;20218;-15
2021/05/01 10:15:45;;;;;;;6.90;6.27;;;18.60;48.50;;;;;;10380122;28;20660;-15
2021/05/01 10:21:06;;;;;;;7.67;6.97;;;18.60;48.30;;;;;;10407164;28;20589;-18
2021/05/01 10:26:41;;;;;;;8.27;7.47;;;18.60;48.50;;;;;;10413726;28;20220;-16
2021/05/01 10:32:14;;;;;;;8.73;7.90;;;18.70;49.00;;;;;;10375345;28;20192;-17
2021/05/01 10:37:44;;;;;;;9.10;8.23;;;18.70;49.10;;;;;;10372849;28;20605;-19
2021/05/01 10:43:07;;;;;;;20.83;10.60;;;18.70;48.60;;;;;;10364768;28;20578;-14
2021/05/01 10:48:29;;;;;;;124.57;28.03;;;18.80;49.00;;;;;;10370629;28;20578;-15
2021/05/01 10:54:07;;;;;;;32.30;12.97;;;18.80;49.00;;;;;;10382833;28;20201;-18
2021/05/01 10:59:30;;;;;;;26.27;9.93;;;18.80;49.00;;;;;;10352300;28;20609;-18
2021/05/01 11:04:56;;;;;;;38.17;14.40;;;18.80;50.60;;;;;;10385296;28;20241;-16
2021/05/01 11:10:18;;;;;;;18.03;10.63;;;18.70;49.00;;;;;;10383994;28;20505;-14
2021/05/01 11:15:45;;;;;;;18.07;11.23;;;18.70;49.70;;;;;;10384122;28;20712;-14
2021/05/01 11:21:09;;;;;;;10.83;8.57;;;18.60;49.50;;;;;;10384211;28;20212;-17
2021/05/01 11:26:32;;;;;;;12.43;10.20;;;18.70;48.40;;;;;;10385613;28;20230;-17
2021/05/01 11:31:56;;;;;;;10.93;9.03;;;18.80;48.90;;;;;;10407519;28;20673;-16
2021/05/01 11:37:26;;;;;;;9.90;8.90;;;18.60;48.60;;;;;;10415559;28;20211;-13
2021/05/01 11:42:48;;;;;;;11.37;9.80;;;18.70;49.00;;;;;;10372773;28;20225;-14
2021/05/01 11:48:13;;;;;;;9.00;8.10;;;18.90;49.90;;;;;;10373351;28;20248;-17
2021/05/01 11:53:43;;;;;;;10.13;9.17;;;19.10;48.90;;;;;;10372834;28;20201;-15
2021/05/01 11:59:08;;;;;;;9.90;8.90;;;19.20;50.20;;;;;;10416456;23;20797;-13
2021/05/01 12:04:57;;;;;;;9.93;8.87;;;19.20;51.10;;;;;;10365199;28;20275;-17
2021/05/01 12:10:21;;;;;;;10.13;7.97;;;19.20;51.20;;;;;;10368317;28;20267;-14
2021/05/01 12:15:48;;;;;;;8.77;7.87;;;19.30;49.10;;;;;;10363860;28;20217;-12
2021/05/01 12:21:15;;;;;;;9.07;7.60;;;19.30;47.40;;;;;;10328110;28;20227;-13
2021/05/01 12:26:39;;;;;;;12.07;9.93;;;19.20;46.00;;;;;;10340454;28;20220;-16
2021/05/01 12:32:04;;;;;;;9.70;8.33;;;19.20;46.70;;;;;;10368474;28;20283;-15
2021/05/01 12:37:28;;;;;;;8.13;7.30;;;19.10;47.90;;;;;;10365168;28;20216;-12
2021/05/01 12:42:50;;;;;;;7.57;6.87;;;19.00;48.30;;;;;;10329306;28;20191;-13
2021/05/01 12:48:32;;;;;;;6.90;6.20;;;19.00;49.10;;;;;;10330056;28;20733;-15
2021/05/01 12:53:55;;;;;;;8.50;6.43;;;18.80;49.10;;;;;;10329736;28;20202;-15
2021/05/01 12:59:28;;;;;;;7.50;6.80;;;18.70;49.20;;;;;;10368668;28;20221;-16
2021/05/01 13:05:10;;;;;;;7.57;6.40;;;18.80;49.90;;;;;;10369794;28;20238;-13
2021/05/01 13:10:33;;;;;;;7.43;6.67;;;18.90;51.50;;;;;;10368393;28;20272;-13
2021/05/01 13:16:00;;;;;;;9.50;6.87;;;19.00;50.90;;;;;;10353579;28;20205;-16
2021/05/01 13:21:22;;;;;;;6.80;6.20;;;19.10;50.70;;;;;;10326450;28;20771;-14
2021/05/01 13:26:44;;;;;;;8.17;7.37;;;19.10;50.30;;;;;;10342801;28;20229;-16
2021/05/01 13:32:09;;;;;;;7.13;6.53;;;19.00;50.70;;;;;;10369458;28;20205;-18
2021/05/01 13:37:30;;;;;;;8.40;6.50;;;19.10;50.50;;;;;;10375216;28;20335;-14
2021/05/01 13:42:53;;;;;;;7.40;6.70;;;19.10;50.80;;;;;;10353296;28;20205;-15
2021/05/01 13:48:17;;;;;;;6.83;6.23;;;19.20;50.50;;;;;;10375625;28;20227;-15
2021/05/01 13:53:39;;;;;;;7.90;5.57;;;19.40;51.00;;;;;;10374865;28;20193;-15
2021/05/01 13:59:00;;;;;;;7.17;6.10;;;19.50;51.40;;;;;;10373708;28;20214;-16
2021/05/01 14:04:30;;;;;;;6.73;6.00;;;19.50;51.60;;;;;;10373297;28;20214;-16
2021/05/01 14:09:52;;;;;;;7.07;6.37;;;19.60;51.80;;;;;;10373749;28;20709;-15
2021/05/01 14:15:16;;;;;;;9.47;8.13;;;19.60;50.90;;;;;;10372689;28;20547;-15
2021/05/01 14:20:40;;;;;;;11.10;9.97;;;19.70;50.20;;;;;;10372194;28;20218;-18
2021/05/01 14:26:02;;;;;;;11.87;10.57;;;19.70;49.70;;;;;;10372077;28;20621;-17
2021/05/01 14:31:24;;;;;;;13.97;12.50;;;19.60;49.80;;;;;;10372695;28;20226;-15
2021/05/01 14:36:46;;;;;;;14.97;13.47;;;19.60;49.50;;;;;;10373884;28;20194;-17
2021/05/01 14:42:12;;;;;;;13.73;12.03;;;19.60;49.80;;;;;;10371578;28;20678;-13
2021/05/01 14:47:36;;;;;;;11.90;10.70;;;19.40;49.70;;;;;;10371426;28;20265;-15
2021/05/01 14:53:12;;;;;;;12.27;10.53;;;19.50;49.50;;;;;;10368794;28;20198;-13
2021/05/01 14:58:36;;;;;;;12.00;10.83;;;19.60;49.10;;;;;;10367895;28;20230;-16
2021/05/01 15:04:08;;;;;;;11.23;10.07;;;19.50;49.50;;;;;;10369580;28;20202;-15
2021/05/01 15:09:30;;;;;;;10.97;9.87;;;19.60;49.60;;;;;;10371674;28;20644;-13
2021/05/01 15:15:10;;;;;;;11.70;10.50;;;19.60;49.50;;;;;;10370824;28;20205;-14
2021/05/01 15:20:39;;;;;;;10.47;9.27;;;19.60;49.10;;;;;;10366514;28;20215;-15
2021/05/01 15:26:03;;;;;;;10.37;9.30;;;19.70;49.10;;;;;;10371017;28;20225;-16
2021/05/01 15:31:25;;;;;;;11.90;10.73;;;19.70;48.90;;;;;;10370743;28;20577;-14
2021/05/01 15:36:47;;;;;;;10.90;9.70;;;19.80;48.90;;;;;;10369501;28;20194;-13
2021/05/01 15:42:09;;;;;;;13.03;11.63;;;19.70;48.90;;;;;;10368492;28;20214;-14
2021/05/01 15:47:32;;;;;;;13.43;11.47;;;19.80;48.80;;;;;;10369802;28;20229;-16
2021/05/01 15:52:53;;;;;;;16.43;13.57;;;19.80;48.70;;;;;;10355333;28;20304;-17
2021/05/01 15:58:17;;;;;;;14.33;12.80;;;19.80;48.60;;;;;;10370432;28;20260;-14
2021/05/01 16:03:39;;;;;;;13.97;12.57;;;19.80;48.80;;;;;;10370809;28;20209;-13
2021/05/01 16:09:00;;;;;;;15.10;13.50;;;19.80;48.80;;;;;;10369575;28;20265;-14
2021/05/01 16:14:23;;;;;;;14.10;12.23;;;19.70;48.20;;;;;;10369646;28;20701;-16
2021/05/01 16:19:44;;;;;;;14.00;12.67;;;19.70;48.40;;;;;;10366643;28;20305;-12
2021/05/01 16:25:07;;;;;;;13.40;12.10;;;19.80;48.40;;;;;;10368842;28;20228;-16
2021/05/01 16:30:30;;;;;;;14.27;12.77;;;19.80;49.00;;;;;;10368512;28;20217;-14
2021/05/01 16:35:51;;;;;;;14.17;12.77;;;19.80;48.30;;;;;;10369546;28;20194;-13
2021/05/01 16:41:13;;;;;;;14.10;12.73;;;19.80;48.60;;;;;;10368946;28;20228;-17
2021/05/01 16:46:36;;;;;;;13.20;11.97;;;19.80;48.80;;;;;;10370464;28;20210;-15
2021/05/01 16:51:59;;;;;;;11.70;10.60;;;19.70;48.60;;;;;;10354195;28;20697;-14
2021/05/01 16:57:20;;;;;;;12.53;11.33;;;19.80;48.80;;;;;;10367444;28;20269;-14
2021/05/01 17:02:43;;;;;;;12.43;11.23;;;19.80;48.40;;;;;;10369438;28;20908;-16
2021/05/01 17:08:05;;;;;;;11.97;10.80;;;19.80;48.20;;;;;;10374322;28;20226;-15
2021/05/01 17:13:26;;;;;;;14.23;12.73;;;19.70;47.90;;;;;;10376552;28;20203;-15
2021/05/01 17:18:49;;;;;;;13.03;11.63;;;19.80;47.60;;;;;;10376126;28;20218;-13
2021/05/01 17:24:10;;;;;;;14.10;11.30;;;19.70;47.40;;;;;;10375503;28;20206;-16
2021/05/01 17:29:32;;;;;;;12.53;11.23;;;19.80;47.30;;;;;;10340206;28;20229;-17
2021/05/01 17:34:54;;;;;;;12.87;10.77;;;19.80;47.30;;;;;;10333686;28;20246;-13
2021/05/01 17:40:16;;;;;;;17.17;15.47;;;19.80;47.20;;;;;;10333900;28;20214;-14
2021/05/01 17:45:39;;;;;;;16.57;14.80;;;19.40;50.50;;;;;;10338950;28;20661;-14
2021/05/01 17:51:01;;;;;;;15.20;13.67;;;19.40;50.40;;;;;;10372875;28;20214;-16
2021/05/01 17:56:24;;;;;;;16.57;14.87;;;19.40;51.00;;;;;;10355311;28;20191;-14
2021/05/01 18:01:45;;;;;;;16.03;14.40;;;19.30;51.70;;;;;;10369679;23;20274;-16
2021/05/01 18:07:08;;;;;;;16.23;13.97;;;19.00;52.80;;;;;;10359734;28;20648;-16
2021/05/01 18:12:29;;;;;;;13.67;12.17;;;19.00;52.90;;;;;;10340392;28;20224;-16
2021/05/01 18:17:51;;;;;;;14.53;13.10;;;19.00;53.40;;;;;;10373672;28;20245;-15
2021/05/01 18:23:13;;;;;;;13.30;12.00;;;19.10;53.50;;;;;;10373014;28;20221;-16
2021/05/01 18:28:35;;;;;;;12.10;10.90;;;19.20;53.40;;;;;;10366787;28;20214;-15
2021/05/01 18:33:58;;;;;;;10.73;9.50;;;19.20;53.50;;;;;;10367648;28;20201;-16
2021/05/01 18:39:20;;;;;;;9.40;8.50;;;19.20;52.40;;;;;;10367010;28;20249;-15
2021/05/01 18:44:42;;;;;;;7.90;7.10;;;19.10;51.80;;;;;;10367021;28;20292;-16
2021/05/01 18:50:03;;;;;;;8.10;7.30;;;19.10;51.50;;;;;;10366260;28;20226;-16
2021/05/01 18:55:26;;;;;;;7.87;6.70;;;19.10;51.20;;;;;;10366124;28;20246;-17
2021/05/01 19:00:48;;;;;;;8.30;6.80;;;19.10;51.40;;;;;;10351771;28;20239;-16
2021/05/01 19:06:10;;;;;;;7.73;6.93;;;19.10;51.20;;;;;;10365011;28;20349;-16
2021/05/01 19:11:33;;;;;;;7.27;6.57;;;19.10;51.10;;;;;;10365782;28;20219;-16
2021/05/01 19:16:55;;;;;;;7.17;6.47;;;19.10;51.20;;;;;;10366027;28;20197;-16
2021/05/01 19:22:20;;;;;;;7.50;6.80;;;19.20;51.00;;;;;;10363938;28;20296;-16
2021/05/01 19:27:43;;;;;;;9.43;7.40;;;19.10;50.90;;;;;;10363834;28;20224;-15
2021/05/01 19:33:05;;;;;;;7.30;6.60;;;19.10;50.90;;;;;;10365332;28;20222;-15
2021/05/01 19:38:27;;;;;;;7.87;7.07;;;19.10;50.70;;;;;;10402629;28;20218;-15
2021/05/01 19:43:51;;;;;;;7.83;6.70;;;19.00;50.90;;;;;;10369898;28;20678;-16
2021/05/01 19:49:14;;;;;;;8.27;7.43;;;19.00;51.10;;;;;;10368154;28;20220;-15
2021/05/01 19:54:35;;;;;;;9.07;7.70;;;19.00;51.00;;;;;;10369032;28;20187;-16
2021/05/01 19:59:58;;;;;;;8.10;7.20;;;19.10;50.70;;;;;;10368431;28;20252;-16
2021/05/01 20:05:19;;;;;;;7.63;6.93;;;19.10;50.60;;;;;;10355428;28;20210;-16
2021/05/01 20:10:41;;;;;;;7.63;6.87;;;19.00;50.50;;;;;;10380478;28;20693;-16
2021/05/01 20:16:05;;;;;;;7.33;6.63;;;19.00;50.50;;;;;;10346399;28;20253;-16
2021/05/01 20:21:26;;;;;;;7.43;6.67;;;19.00;50.30;;;;;;10365859;28;20226;-16
2021/05/01 20:26:48;;;;;;;7.63;6.80;;;19.00;50.20;;;;;;10368406;28;20220;-16
2021/05/01 20:32:11;;;;;;;7.57;6.77;;;19.00;50.00;;;;;;10368072;28;20243;-16
2021/05/01 20:37:34;;;;;;;7.83;7.03;;;19.00;50.00;;;;;;10368154;28;20194;-16
2021/05/01 20:42:55;;;;;;;7.90;7.20;;;18.90;50.00;;;;;;10371933;28;20222;-16
2021/05/01 20:48:18;;;;;;;8.50;7.47;;;18.90;49.80;;;;;;10348560;28;20219;-17
2021/05/01 20:53:40;;;;;;;8.47;7.67;;;18.80;49.90;;;;;;10336960;28;20219;-15
2021/05/01 20:59:01;;;;;;;8.63;7.83;;;18.70;50.20;;;;;;10374974;28;20658;-15
2021/05/01 21:04:24;;;;;;;8.93;7.80;;;18.70;50.10;;;;;;10375999;28;20227;-15
2021/05/01 21:09:45;;;;;;;9.60;7.40;;;18.60;49.90;;;;;;10361033;28;20598;-15
2021/05/01 21:15:08;;;;;;;8.13;7.33;;;18.60;49.80;;;;;;10375104;28;20190;-14
2021/05/01 21:20:31;;;;;;;8.67;7.77;;;18.60;49.90;;;;;;10375844;28;20218;-14
2021/05/01 21:25:53;;;;;;;10.43;9.33;;;18.50;49.80;;;;;;10369243;28;20226;-15
2021/05/01 21:31:16;;;;;;;9.13;7.93;;;18.50;49.70;;;;;;10334142;28;20211;-15
2021/05/01 21:36:39;;;;;;;7.90;7.10;;;18.50;49.20;;;;;;10334537;28;20199;-15
2021/05/01 21:42:00;;;;;;;9.50;7.83;;;18.50;49.80;;;;;;10333816;28;20273;-14
2021/05/01 21:47:22;;;;;;;8.40;7.47;;;18.50;49.00;;;;;;10334555;28;20646;-14
2021/05/01 21:52:45;;;;;;;8.70;7.80;;;18.50;49.00;;;;;;10333355;28;20217;-15
2021/05/01 21:58:08;;;;;;;8.13;7.33;;;18.50;48.70;;;;;;10364523;28;20246;-15
2021/05/01 22:03:29;;;;;;;7.27;6.57;;;18.40;48.70;;;;;;10368895;28;20226;-15
2021/05/01 22:08:52;;;;;;;8.03;7.23;;;18.40;48.70;;;;;;10373794;28;20685;-14
2021/05/01 22:14:14;;;;;;;9.83;8.60;;;18.30;48.50;;;;;;10360097;28;20574;-15
2021/05/01 22:19:38;;;;;;;8.37;7.57;;;18.10;49.10;;;;;;10372843;28;20385;-14
2021/05/01 22:25:06;;;;;;;8.10;7.30;;;18.00;49.10;;;;;;10359977;28;20219;-15
2021/05/01 22:30:28;;;;;;;8.40;7.60;;;18.00;48.80;;;;;;10334077;28;20282;-16
2021/05/01 22:35:50;;;;;;;8.63;7.83;;;18.10;48.60;;;;;;10373621;28;20186;-17
2021/05/01 22:41:12;;;;;;;8.90;7.80;;;18.10;48.10;;;;;;10372647;28;20218;-16
2021/05/01 22:46:36;;;;;;;8.30;7.40;;;18.10;48.60;;;;;;10372909;28;20214;-16
2021/05/01 22:51:58;;;;;;;7.77;7.07;;;18.00;48.70;;;;;;10372048;28;20222;-17
2021/05/01 22:57:21;;;;;;;8.93;8.03;;;18.00;48.70;;;;;;10371363;28;20202;-16
2021/05/01 23:02:42;;;;;;;8.90;8.00;;;18.00;48.70;;;;;;10371751;28;20238;-15
2021/05/01 23:08:05;;;;;;;9.20;8.30;;;18.10;48.30;;;;;;10372016;28;20214;-16
2021/05/01 23:13:29;;;;;;;8.93;8.13;;;18.10;48.30;;;;;;10370397;28;20225;-15
2021/05/01 23:18:51;;;;;;;9.83;8.93;;;18.00;48.20;;;;;;10367944;28;20190;-17
2021/05/01 23:24:14;;;;;;;11.57;10.33;;;17.80;48.40;;;;;;10363502;28;20585;-15
2021/05/01 23:29:37;;;;;;;12.63;11.33;;;17.90;48.30;;;;;;10371139;28;20240;-16
2021/05/01 23:34:58;;;;;;;12.57;11.33;;;17.90;48.10;;;;;;10369666;28;20610;-16
2021/05/01 23:40:22;;;;;;;11.07;9.97;;;17.90;48.00;;;;;;10371047;28;20222;-16
2021/05/01 23:45:44;;;;;;;10.70;9.60;;;17.80;48.20;;;;;;10369752;28;20277;-16
2021/05/01 23:51:08;;;;;;;9.90;9.00;;;17.70;48.50;;;;;;10369693;28;20732;-16
2021/05/01 23:56:30;;;;;;;9.53;8.63;;;17.70;48.60;;;;;;10369374;28;20263;-16
